createdAt,value
2018-01-23T00:02:20.865Z,1.79
2018-01-23T00:04:48.910Z,1.69
2018-01-23T00:07:16.360Z,1.61
2018-01-23T00:09:43.812Z,1.60
2018-01-23T00:12:11.907Z,1.59
2018-01-23T00:14:39.360Z,1.67
2018-01-23T00:17:06.813Z,1.63
2018-01-23T00:19:34.598Z,1.69
2018-01-23T00:22:02.053Z,1.76
2018-01-23T00:24:29.516Z,1.74
2018-01-23T00:26:57.277Z,1.76
2018-01-23T00:29:24.813Z,1.75
2018-01-23T00:31:52.266Z,1.71
2018-01-23T00:34:20.281Z,1.69
2018-01-23T00:36:47.748Z,1.70
2018-01-23T00:39:15.220Z,1.81
2018-01-23T00:41:42.967Z,1.94
2018-01-23T00:44:10.429Z,1.91
2018-01-23T00:46:37.888Z,1.94
2018-01-23T00:49:06.218Z,1.94
2018-01-23T00:51:33.682Z,1.94
2018-01-23T00:54:01.142Z,1.94
2018-01-23T00:56:28.952Z,1.97
2018-01-23T00:58:56.977Z,1.99
2018-01-23T01:01:25.498Z,2.09
2018-01-23T01:03:53.484Z,2.06
2018-01-23T01:06:20.939Z,2.09
2018-01-23T01:08:48.408Z,2.06
2018-01-23T01:11:16.172Z,2.05
2018-01-23T01:13:43.690Z,2.10
2018-01-23T01:16:11.150Z,2.19
2018-01-23T01:18:39.167Z,2.13
2018-01-23T01:21:06.623Z,2.07
2018-01-23T01:23:34.074Z,2.11
2018-01-23T01:26:01.774Z,2.13
2018-01-23T01:28:29.232Z,2.15
2018-01-23T01:30:56.689Z,2.17
2018-01-23T01:33:24.518Z,2.15
2018-01-23T01:35:51.980Z,2.05
2018-01-23T01:38:19.442Z,1.98
2018-01-23T01:40:47.228Z,1.96
2018-01-23T01:43:14.688Z,1.97
2018-01-23T01:45:42.144Z,2.06
2018-01-23T01:48:09.926Z,2.08
2018-01-23T01:50:38.069Z,2.10
2018-01-23T01:53:05.545Z,2.09
2018-01-23T01:55:33.529Z,2.13
2018-01-23T01:58:00.989Z,2.15
2018-01-23T02:00:28.441Z,2.12
2018-01-23T02:02:56.152Z,2.18
2018-01-23T02:05:23.618Z,2.06
2018-01-23T02:07:51.073Z,2.02
2018-01-23T02:10:18.891Z,2.06
2018-01-23T02:12:46.340Z,2.11
2018-01-23T02:15:13.802Z,2.18
2018-01-23T02:17:41.505Z,2.20
2018-01-23T02:20:08.966Z,2.29
2018-01-23T02:22:36.434Z,2.26
2018-01-23T02:25:04.577Z,2.33
2018-01-23T02:27:32.033Z,2.32
2018-01-23T02:29:59.488Z,2.36
2018-01-23T02:32:27.261Z,2.42
2018-01-23T02:34:54.719Z,2.41
2018-01-23T02:37:22.184Z,2.46
2018-01-23T02:39:49.964Z,2.46
2018-01-23T02:42:17.425Z,2.37
2018-01-23T02:44:44.885Z,2.57
2018-01-23T02:47:12.947Z,2.57
2018-01-23T02:49:40.397Z,2.49
2018-01-23T02:52:10.772Z,2.56
2018-01-23T02:54:38.407Z,2.58
2018-01-23T02:57:05.860Z,2.53
2018-01-23T02:59:33.326Z,2.59
2018-01-23T03:02:01.094Z,2.63
2018-01-23T03:04:28.575Z,2.61
2018-01-23T03:06:56.034Z,2.58
2018-01-23T03:09:23.677Z,2.51
2018-01-23T03:11:51.133Z,2.58
2018-01-23T03:14:18.588Z,2.49
2018-01-23T03:16:46.367Z,2.65
2018-01-23T03:19:13.835Z,2.65
2018-01-23T03:21:41.284Z,2.63
2018-01-23T03:24:09.149Z,2.68
2018-01-23T03:26:36.615Z,2.68
2018-01-23T03:29:04.077Z,2.75
2018-01-23T03:31:32.140Z,2.76
2018-01-23T03:33:59.592Z,2.83
2018-01-23T03:36:27.046Z,2.91
2018-01-23T03:38:54.826Z,2.85
2018-01-23T03:41:22.289Z,2.87
2018-01-23T03:43:49.751Z,2.95
2018-01-23T03:46:17.518Z,2.89
2018-01-23T03:48:44.984Z,3.00
2018-01-23T03:51:12.441Z,2.95
2018-01-23T03:53:40.761Z,2.96
2018-01-23T03:56:08.219Z,2.99
2018-01-23T03:58:35.712Z,2.93
2018-01-23T04:01:03.507Z,2.96
2018-01-23T04:03:30.970Z,2.88
2018-01-23T04:05:58.430Z,3.00
2018-01-23T04:08:26.493Z,2.87
2018-01-23T04:10:53.955Z,2.98
2018-01-23T04:13:21.422Z,3.01
2018-01-23T04:15:49.156Z,2.97
2018-01-23T04:18:16.618Z,3.04
2018-01-23T04:20:44.086Z,3.06
2018-01-23T04:23:12.089Z,3.01
2018-01-23T04:25:39.544Z,3.16
2018-01-23T04:28:07.002Z,3.24
2018-01-23T04:30:34.773Z,3.32
2018-01-23T04:33:02.224Z,3.30
2018-01-23T04:35:29.669Z,3.23
2018-01-23T04:37:57.860Z,3.25
2018-01-23T04:40:25.323Z,3.39
2018-01-23T04:42:52.790Z,3.23
2018-01-23T04:45:20.548Z,3.13
2018-01-23T04:47:47.995Z,3.24
2018-01-23T04:50:15.485Z,3.23
2018-01-23T04:52:43.193Z,3.24
2018-01-23T04:55:11.385Z,3.23
2018-01-23T04:57:38.846Z,3.21
2018-01-23T05:00:06.548Z,3.22
2018-01-23T05:02:34.000Z,3.27
2018-01-23T05:05:01.464Z,3.21
2018-01-23T05:07:29.221Z,3.25
2018-01-23T05:09:56.687Z,3.25
2018-01-23T05:12:24.157Z,3.30
2018-01-23T05:14:51.863Z,3.38
2018-01-23T05:17:19.320Z,3.42
2018-01-23T05:19:46.780Z,3.41
2018-01-23T05:22:14.741Z,3.36
2018-01-23T05:24:42.187Z,3.45
2018-01-23T05:27:09.637Z,3.38
2018-01-23T05:29:38.206Z,3.48
2018-01-23T05:32:05.661Z,3.46
2018-01-23T05:34:33.109Z,3.42
2018-01-23T05:37:00.877Z,3.40
2018-01-23T05:39:28.328Z,3.32
2018-01-23T05:41:55.786Z,3.35
2018-01-23T05:44:23.568Z,3.36
2018-01-23T05:46:51.021Z,3.33
2018-01-23T05:49:18.470Z,3.37
2018-01-23T05:51:46.171Z,3.39
2018-01-23T05:54:13.621Z,3.46
2018-01-23T05:56:41.265Z,3.56
2018-01-23T05:59:08.953Z,3.52
2018-01-23T06:01:36.416Z,3.60
2018-01-23T06:04:03.871Z,3.51
2018-01-23T06:06:31.632Z,3.58
2018-01-23T06:08:59.084Z,3.58
2018-01-23T06:11:26.540Z,3.63
2018-01-23T06:13:54.325Z,3.58
2018-01-23T06:16:21.780Z,3.55
2018-01-23T06:18:49.230Z,3.55
2018-01-23T06:21:17.021Z,3.58
2018-01-23T06:23:44.477Z,3.53
2018-01-23T06:26:11.932Z,3.61
2018-01-23T06:28:39.640Z,3.60
2018-01-23T06:31:07.090Z,3.59
2018-01-23T06:33:34.549Z,3.61
2018-01-23T06:36:02.363Z,3.60
2018-01-23T06:38:30.818Z,3.65
2018-01-23T06:40:58.279Z,3.73
2018-01-23T06:43:26.000Z,3.70
2018-01-23T06:45:53.509Z,3.85
2018-01-23T06:48:20.978Z,3.69
2018-01-23T06:50:48.696Z,3.74
2018-01-23T06:53:16.153Z,3.73
2018-01-23T06:55:43.610Z,3.77
2018-01-23T06:58:11.702Z,3.78
2018-01-23T07:00:39.206Z,3.74
2018-01-23T07:03:06.661Z,3.81
2018-01-23T07:05:34.360Z,3.83
2018-01-23T07:08:01.818Z,3.83
2018-01-23T07:10:29.285Z,3.78
2018-01-23T07:12:57.054Z,3.81
2018-01-23T07:15:24.504Z,3.83
2018-01-23T07:17:51.955Z,3.73
2018-01-23T07:20:19.945Z,3.83
2018-01-23T07:22:47.417Z,3.81
2018-01-23T07:25:14.878Z,3.85
2018-01-23T07:27:42.736Z,3.89
2018-01-23T07:30:10.193Z,3.96
2018-01-23T07:32:37.657Z,3.89
2018-01-23T07:35:05.421Z,3.93
2018-01-23T07:37:32.900Z,3.87
2018-01-23T07:40:00.356Z,3.85
2018-01-23T07:42:28.102Z,3.84
2018-01-23T07:44:55.568Z,3.84
2018-01-23T07:47:23.024Z,3.85
2018-01-23T07:49:50.797Z,3.87
2018-01-23T07:52:18.263Z,3.87
2018-01-23T07:54:45.736Z,3.88
2018-01-23T07:57:13.481Z,3.91
2018-01-23T07:59:41.314Z,3.91
2018-01-23T08:02:08.761Z,3.91
2018-01-23T08:04:36.620Z,3.98
2018-01-23T08:07:04.089Z,4.02
2018-01-23T08:09:31.560Z,3.99
2018-01-23T08:11:59.459Z,4.02
2018-01-23T08:14:26.917Z,4.09
2018-01-23T08:16:54.373Z,4.10
2018-01-23T08:19:22.464Z,4.18
2018-01-23T08:21:49.979Z,4.12
2018-01-23T08:24:17.466Z,4.18
2018-01-23T08:26:45.278Z,4.27
2018-01-23T08:29:12.739Z,4.36
2018-01-23T08:31:40.193Z,4.38
2018-01-23T08:34:08.111Z,4.31
2018-01-23T08:36:35.566Z,4.43
2018-01-23T08:39:03.027Z,4.32
2018-01-23T08:41:30.887Z,4.35
2018-01-23T08:43:58.346Z,4.39
2018-01-23T08:46:25.806Z,4.39
2018-01-23T08:48:53.521Z,4.46
2018-01-23T08:51:20.982Z,4.41
2018-01-23T08:53:48.440Z,4.40
2018-01-23T08:56:16.204Z,4.42
2018-01-23T08:58:43.679Z,4.48
2018-01-23T09:01:11.514Z,4.50
2018-01-23T09:03:39.212Z,4.54
2018-01-23T09:06:06.667Z,4.62
2018-01-23T09:08:34.130Z,4.62
2018-01-23T09:11:01.885Z,4.75
2018-01-23T09:13:30.829Z,4.73
2018-01-23T09:15:58.276Z,4.77
2018-01-23T09:18:26.077Z,4.74
2018-01-23T09:20:53.521Z,4.77
2018-01-23T09:23:20.977Z,4.91
2018-01-23T09:25:48.756Z,4.95
2018-01-23T09:28:16.204Z,5.02
2018-01-23T09:30:43.662Z,5.18
2018-01-23T09:33:11.481Z,5.31
2018-01-23T09:35:38.944Z,5.36
2018-01-23T09:38:06.405Z,5.55
2018-01-23T09:40:34.165Z,5.74
2018-01-23T09:43:01.627Z,5.62
2018-01-23T09:45:29.093Z,5.76
2018-01-23T09:47:56.852Z,5.63
2018-01-23T09:50:24.314Z,5.60
2018-01-23T09:52:51.812Z,5.80
2018-01-23T09:55:19.545Z,5.71
2018-01-23T09:57:47.012Z,5.85
2018-01-23T10:00:14.467Z,5.88
2018-01-23T10:02:42.837Z,5.67
2018-01-23T10:05:10.296Z,5.77
2018-01-23T10:07:37.748Z,6.02
2018-01-23T10:10:05.529Z,6.03
2018-01-23T10:12:32.995Z,6.03
2018-01-23T10:15:00.461Z,6.14
2018-01-23T10:17:28.217Z,6.12
2018-01-23T10:19:55.685Z,6.28
2018-01-23T10:22:23.147Z,6.20
2018-01-23T10:24:51.021Z,6.32
2018-01-23T10:27:18.477Z,6.25
2018-01-23T10:29:45.934Z,6.31
2018-01-23T10:32:13.594Z,6.47
2018-01-23T10:34:41.052Z,6.16
2018-01-23T10:37:08.508Z,6.35
2018-01-23T10:39:36.264Z,6.46
2018-01-23T10:42:03.724Z,6.48
2018-01-23T10:44:31.182Z,6.26
2018-01-23T10:46:58.972Z,6.21
2018-01-23T10:49:26.447Z,6.42
2018-01-23T10:51:53.939Z,6.31
2018-01-23T10:54:21.646Z,6.49
2018-01-23T10:56:49.106Z,6.31
2018-01-23T10:59:16.557Z,6.30
2018-01-23T11:01:44.341Z,6.42
2018-01-23T11:04:12.176Z,6.50
2018-01-23T11:06:39.629Z,6.48
2018-01-23T11:09:07.649Z,6.34
2018-01-23T11:11:35.109Z,6.32
2018-01-23T11:14:02.562Z,6.18
2018-01-23T11:16:30.322Z,6.26
2018-01-23T11:18:57.776Z,6.30
2018-01-23T11:21:25.235Z,6.19
2018-01-23T11:23:53.325Z,6.32
2018-01-23T11:26:20.781Z,6.15
2018-01-23T11:28:48.232Z,6.06
2018-01-23T11:31:16.001Z,6.13
2018-01-23T11:33:43.461Z,6.14
2018-01-23T11:36:10.909Z,6.04
2018-01-23T11:38:38.689Z,6.04
2018-01-23T11:41:06.153Z,6.01
2018-01-23T11:43:33.622Z,5.91
2018-01-23T11:46:01.360Z,5.79
2018-01-23T11:48:28.817Z,5.73
2018-01-23T11:50:56.271Z,5.70
2018-01-23T11:53:24.074Z,5.77
2018-01-23T11:55:51.535Z,5.68
2018-01-23T12:05:03.589Z,5.71
2018-01-23T12:07:31.049Z,5.71
2018-01-23T12:09:58.508Z,5.70
2018-01-23T12:12:26.568Z,5.74
2018-01-23T12:14:54.024Z,5.70
2018-01-23T12:17:21.477Z,5.62
2018-01-23T12:19:49.267Z,5.72
2018-01-23T12:22:16.729Z,5.69
2018-01-23T12:24:44.229Z,5.63
2018-01-23T12:27:12.270Z,5.65
2018-01-23T12:29:39.728Z,5.61
2018-01-23T12:32:07.193Z,5.45
2018-01-23T12:34:34.941Z,5.48
2018-01-23T12:37:02.404Z,5.44
2018-01-23T12:39:29.865Z,5.49
2018-01-23T12:41:57.624Z,5.37
2018-01-23T12:44:25.094Z,5.55
2018-01-23T12:46:52.549Z,5.45
2018-01-23T12:49:20.320Z,5.44
2018-01-23T12:51:47.768Z,5.66
2018-01-23T12:54:15.217Z,5.49
2018-01-23T12:56:42.957Z,5.62
2018-01-23T12:59:10.410Z,5.56
2018-01-23T13:01:37.873Z,5.69
2018-01-23T13:04:05.701Z,5.67
2018-01-23T13:06:33.543Z,5.85
2018-01-23T13:09:00.997Z,5.97
2018-01-23T13:11:29.005Z,6.15
2018-01-23T13:13:56.460Z,6.02
2018-01-23T13:16:23.905Z,5.99
2018-01-23T13:18:51.679Z,6.05
2018-01-23T13:21:19.204Z,5.84
2018-01-23T13:23:46.655Z,5.64
2018-01-23T13:26:14.388Z,5.92
2018-01-23T13:28:41.845Z,5.79
2018-01-23T13:31:09.340Z,5.83
2018-01-23T13:33:37.050Z,6.03
2018-01-23T13:36:04.517Z,6.12
2018-01-23T13:38:31.978Z,5.96
2018-01-23T13:40:59.767Z,5.97
2018-01-23T13:43:27.226Z,6.08
2018-01-23T13:45:54.674Z,6.04
2018-01-23T13:48:22.420Z,6.29
2018-01-23T13:50:49.878Z,6.37
2018-01-23T13:53:17.341Z,6.31
2018-01-23T13:55:45.115Z,6.09
2018-01-23T13:58:12.576Z,5.82
2018-01-23T14:00:40.040Z,5.99
2018-01-23T14:03:07.801Z,5.74
2018-01-23T14:05:35.264Z,5.89
2018-01-23T14:08:03.410Z,5.86
2018-01-23T14:10:31.354Z,5.82
2018-01-23T14:12:58.811Z,6.01
2018-01-23T14:15:26.280Z,5.86
2018-01-23T14:17:54.038Z,5.90
2018-01-23T14:20:21.492Z,6.79
2018-01-23T14:22:48.965Z,6.65
2018-01-23T14:25:16.785Z,6.47
2018-01-23T14:27:44.239Z,6.33
2018-01-23T14:30:11.697Z,6.35
2018-01-23T14:32:39.772Z,6.41
2018-01-23T14:35:07.225Z,6.06
2018-01-23T14:37:34.677Z,5.98
2018-01-23T14:40:02.463Z,6.10
2018-01-23T14:42:29.925Z,6.25
2018-01-23T14:44:57.373Z,6.13
2018-01-23T14:47:25.461Z,6.29
2018-01-23T14:49:52.944Z,6.30
2018-01-23T14:52:20.396Z,6.21
2018-01-23T14:54:48.152Z,6.12
2018-01-23T14:57:15.621Z,6.15
2018-01-23T14:59:43.076Z,6.05
2018-01-23T15:02:10.824Z,5.97
2018-01-23T15:04:38.286Z,6.17
2018-01-23T15:07:05.756Z,6.10
2018-01-23T15:09:35.966Z,6.06
2018-01-23T15:12:03.539Z,6.04
2018-01-23T15:14:30.997Z,5.99
2018-01-23T15:16:58.964Z,5.78
2018-01-23T15:19:26.417Z,5.61
2018-01-23T15:21:53.880Z,5.97
2018-01-23T15:24:21.652Z,6.03
2018-01-23T15:26:49.113Z,5.96
2018-01-23T15:29:16.575Z,5.73
2018-01-23T15:31:44.354Z,5.72
2018-01-23T15:34:11.815Z,5.94
2018-01-23T15:36:39.276Z,5.96
2018-01-23T15:39:07.029Z,5.91
2018-01-23T15:41:34.761Z,5.69
2018-01-23T15:44:02.208Z,5.91
2018-01-23T15:46:30.018Z,5.88
2018-01-23T15:48:57.464Z,5.74
2018-01-23T15:51:24.922Z,5.59
2018-01-23T15:53:52.683Z,5.78
2018-01-23T15:56:20.109Z,5.77
2018-01-23T15:58:47.573Z,5.73
2018-01-23T16:01:15.272Z,5.70
2018-01-23T16:03:42.732Z,5.82
2018-01-23T16:06:10.190Z,5.78
2018-01-23T16:08:38.086Z,5.75
2018-01-23T16:11:08.077Z,5.85
2018-01-23T16:13:35.526Z,5.79
2018-01-23T16:16:03.255Z,5.84
2018-01-23T16:18:30.724Z,5.73
2018-01-23T16:20:58.172Z,5.81
2018-01-23T16:23:25.920Z,5.60
2018-01-23T16:25:53.385Z,5.64
2018-01-23T16:28:20.855Z,5.62
2018-01-23T16:30:48.598Z,5.64
2018-01-23T16:33:16.056Z,5.84
2018-01-23T16:35:43.521Z,5.78
2018-01-23T16:38:11.291Z,5.51
2018-01-23T16:40:38.756Z,5.43
2018-01-23T16:43:06.215Z,5.38
2018-01-23T16:45:33.973Z,5.39
2018-01-23T16:48:01.430Z,5.39
2018-01-23T16:50:28.899Z,5.44
2018-01-23T16:52:58.519Z,5.46
2018-01-23T16:55:25.968Z,5.47
2018-01-23T16:57:53.419Z,5.44
2018-01-23T17:00:21.190Z,5.20
2018-01-23T17:02:48.648Z,5.23
2018-01-23T17:05:16.101Z,5.34
2018-01-23T17:07:43.917Z,5.38
2018-01-23T17:10:11.376Z,5.23
2018-01-23T17:12:41.103Z,5.11
2018-01-23T17:15:09.025Z,5.15
2018-01-23T17:17:37.479Z,5.28
2018-01-23T17:20:04.927Z,5.32
2018-01-23T17:22:32.943Z,5.38
2018-01-23T17:25:00.409Z,5.40
2018-01-23T17:27:27.887Z,5.42
2018-01-23T17:29:55.625Z,5.42
2018-01-23T17:32:23.086Z,5.58
2018-01-23T17:34:50.575Z,5.59
2018-01-23T17:37:18.312Z,5.32
2018-01-23T17:39:45.760Z,5.29
2018-01-23T17:42:13.208Z,5.33
2018-01-23T17:44:40.847Z,5.47
2018-01-23T17:47:08.305Z,5.44
2018-01-23T17:49:35.766Z,5.35
2018-01-23T17:52:03.375Z,5.28
2018-01-23T17:54:30.825Z,5.24
2018-01-23T17:56:58.292Z,5.32
2018-01-23T17:59:26.102Z,5.43
2018-01-23T18:01:53.556Z,5.51
2018-01-23T18:04:21.013Z,5.53
2018-01-23T18:06:48.752Z,5.58
2018-01-23T18:09:16.204Z,5.58
2018-01-23T18:11:43.648Z,5.55
2018-01-23T18:14:12.317Z,5.59
2018-01-23T18:16:39.778Z,5.44
2018-01-23T18:19:07.229Z,5.34
2018-01-23T18:21:35.047Z,5.21
2018-01-23T18:24:02.586Z,5.30
2018-01-23T18:26:30.057Z,5.38
2018-01-23T18:28:57.888Z,5.20
2018-01-23T18:31:25.347Z,5.20
2018-01-23T18:33:52.798Z,5.25
2018-01-23T18:36:20.740Z,5.25
2018-01-23T18:38:48.227Z,5.07
2018-01-23T18:41:15.693Z,4.97
2018-01-23T18:43:43.419Z,5.08
2018-01-23T18:46:10.887Z,5.01
2018-01-23T18:48:38.397Z,4.95
2018-01-23T18:51:06.115Z,5.11
2018-01-23T18:53:33.613Z,5.13
2018-01-23T18:56:01.074Z,5.00
2018-01-23T18:58:29.096Z,4.94
2018-01-23T19:00:56.686Z,4.93
2018-01-23T19:03:24.168Z,4.80
2018-01-23T19:05:52.092Z,4.84
2018-01-23T19:08:19.548Z,4.84
2018-01-23T19:10:47.001Z,4.82
2018-01-23T19:13:15.065Z,4.80
2018-01-23T19:15:42.945Z,4.82
2018-01-23T19:18:10.410Z,4.79
2018-01-23T19:20:39.729Z,4.75
2018-01-23T19:23:09.120Z,4.73
2018-01-23T19:25:38.555Z,4.79
2018-01-23T19:28:08.161Z,4.83
2018-01-23T19:30:37.474Z,4.77
2018-01-23T19:33:05.921Z,4.82
2018-01-23T19:35:35.407Z,4.91
2018-01-23T19:38:02.969Z,4.86
2018-01-23T19:40:30.439Z,4.85
2018-01-23T19:42:58.095Z,4.85
2018-01-23T19:45:26.933Z,4.78
2018-01-23T19:47:54.389Z,4.87
2018-01-23T19:50:22.180Z,4.72
2018-01-23T19:52:49.625Z,4.51
2018-01-23T19:55:18.144Z,4.72
2018-01-23T19:57:46.197Z,4.73
2018-01-23T20:00:13.667Z,4.75
2018-01-23T20:09:24.860Z,4.41
2018-01-23T20:11:52.329Z,4.48
2018-01-23T20:14:19.958Z,4.47
2018-01-23T20:16:48.201Z,4.50
2018-01-23T20:19:15.690Z,4.46
2018-01-23T20:21:43.143Z,4.45
2018-01-23T20:24:11.152Z,4.46
2018-01-23T20:26:38.624Z,4.62
2018-01-23T20:29:06.085Z,4.67
2018-01-23T20:31:33.840Z,4.46
2018-01-23T20:34:01.311Z,4.61
2018-01-23T20:36:28.763Z,4.69
2018-01-23T20:38:56.528Z,4.78
2018-01-23T20:41:24.021Z,4.72
2018-01-23T20:43:51.477Z,4.54
2018-01-23T20:46:19.208Z,4.47
2018-01-23T20:48:46.655Z,4.55
2018-01-23T20:51:14.113Z,4.56
2018-01-23T20:53:42.050Z,4.48
2018-01-23T20:56:09.523Z,4.63
2018-01-23T20:58:36.985Z,4.62
2018-01-23T21:01:04.904Z,4.55
2018-01-23T21:03:32.374Z,4.58
2018-01-23T21:05:59.840Z,4.61
2018-01-23T21:08:27.588Z,4.65
2018-01-23T21:10:55.069Z,4.51
2018-01-23T21:13:22.525Z,4.48
2018-01-23T21:15:50.261Z,4.53
2018-01-23T21:18:18.129Z,4.62
2018-01-23T21:20:45.588Z,4.60
2018-01-23T21:23:13.446Z,4.58
2018-01-23T21:25:40.904Z,4.58
2018-01-23T21:28:08.356Z,4.60
2018-01-23T21:30:36.261Z,4.58
2018-01-23T21:33:03.720Z,4.60
2018-01-23T21:35:31.173Z,4.62
2018-01-23T21:37:59.252Z,4.63
2018-01-23T21:40:26.708Z,4.63
2018-01-23T21:42:54.157Z,4.72
2018-01-23T21:45:21.938Z,4.66
2018-01-23T21:47:49.400Z,4.53
2018-01-23T21:50:16.853Z,4.48
2018-01-23T21:52:44.798Z,4.39
2018-01-23T21:55:12.257Z,4.45
2018-01-23T21:57:39.712Z,4.36
2018-01-23T22:00:09.693Z,4.45
2018-01-23T22:02:37.148Z,4.54
2018-01-23T22:05:04.597Z,4.50
2018-01-23T22:07:32.453Z,4.45
2018-01-23T22:09:59.901Z,4.43
2018-01-23T22:12:27.353Z,4.32
2018-01-23T22:14:55.163Z,4.43
2018-01-23T22:17:22.614Z,4.43
2018-01-23T22:19:50.081Z,4.25
2018-01-23T22:22:17.829Z,4.38
2018-01-23T22:24:45.282Z,4.46
2018-01-23T22:27:12.780Z,4.35
2018-01-23T22:29:40.498Z,4.42
2018-01-23T22:32:07.959Z,4.32
2018-01-23T22:34:35.420Z,4.32
2018-01-23T22:37:03.211Z,4.37
2018-01-23T22:39:30.669Z,4.44
2018-01-23T22:41:58.128Z,4.52
2018-01-23T22:44:25.890Z,4.60
2018-01-23T22:46:53.344Z,4.63
2018-01-23T22:49:20.805Z,4.59
2018-01-23T22:51:48.594Z,4.58
2018-01-23T22:54:16.050Z,4.61
2018-01-23T22:56:43.524Z,4.59
2018-01-23T22:59:11.576Z,4.58
2018-01-23T23:01:39.183Z,4.49
2018-01-23T23:04:06.649Z,4.42
2018-01-23T23:06:34.565Z,4.32
2018-01-23T23:09:02.016Z,4.51
2018-01-23T23:11:29.481Z,4.52
2018-01-23T23:13:57.209Z,4.50
2018-01-23T23:16:24.669Z,4.39
2018-01-23T23:18:52.125Z,4.37
2018-01-23T23:21:19.932Z,4.19
2018-01-23T23:23:47.385Z,4.28
2018-01-23T23:26:14.850Z,4.18
2018-01-23T23:28:42.625Z,4.10
2018-01-23T23:31:10.085Z,4.20
2018-01-23T23:33:37.542Z,4.36
2018-01-23T23:36:05.751Z,4.29
2018-01-23T23:38:33.209Z,4.34
2018-01-23T23:41:00.672Z,4.35
2018-01-23T23:43:28.389Z,4.34
2018-01-23T23:45:55.844Z,4.42
2018-01-23T23:48:23.298Z,4.46
2018-01-23T23:50:51.230Z,4.48
2018-01-23T23:53:18.683Z,4.42
2018-01-23T23:55:46.133Z,4.44
2018-01-23T23:58:13.985Z,4.49
